Time;durP1;ratioP1;P1;durP2;ratioP2;P2;SDS_P1;SDS_P2;PMS_P1;PMS_P2;Temp;Humidity;BMP_temperature;BMP_pressure;BME280_temperature;BME280_humidity;BME280_pressure;Samples;Min_cycle;Max_cycle;Signal;HPM_P1;HPM_P2
2022/07/25 00:00:24;;;;;;;4.80;3.10;;;20.60;99.90;;;;;;5076387;28;20556;-77
2022/07/25 00:02:51;;;;;;;2.90;2.80;;;20.60;99.90;;;;;;5075878;28;20476;-78
2022/07/25 00:05:17;;;;;;;4.40;3.00;;;20.50;99.90;;;;;;5079970;28;20444;-76
2022/07/25 00:07:44;;;;;;;3.20;2.90;;;20.50;99.90;;;;;;5082571;28;20437;-78
2022/07/25 00:10:11;;;;;;;3.23;2.90;;;20.50;99.90;;;;;;5077073;28;20481;-80
2022/07/25 00:12:38;;;;;;;3.80;3.50;;;20.50;99.90;;;;;;5079090;28;21005;-76
2022/07/25 00:15:06;;;;;;;3.20;2.87;;;20.40;99.90;;;;;;5082513;28;20797;-76
2022/07/25 00:17:34;;;;;;;2.90;2.70;;;20.40;99.90;;;;;;5083586;28;20449;-76
2022/07/25 00:20:02;;;;;;;3.30;3.00;;;20.30;99.90;;;;;;5080348;28;20456;-77
2022/07/25 00:22:29;;;;;;;3.37;3.17;;;20.30;99.90;;;;;;5079557;28;20483;-79
2022/07/25 00:24:56;;;;;;;3.63;3.37;;;20.30;99.90;;;;;;5077388;28;20960;-79
2022/07/25 00:27:22;;;;;;;3.10;2.63;;;20.30;99.90;;;;;;5078446;28;20440;-76
2022/07/25 00:29:49;;;;;;;2.90;2.37;;;20.20;99.90;;;;;;5079302;28;20504;-77
2022/07/25 00:32:16;;;;;;;2.63;2.40;;;20.20;99.90;;;;;;5083381;28;20473;-76
2022/07/25 00:34:44;;;;;;;2.80;2.60;;;20.20;99.90;;;;;;5080015;28;20448;-77
2022/07/25 00:37:11;;;;;;;3.10;2.90;;;20.20;99.90;;;;;;5079806;28;20860;-76
2022/07/25 00:39:37;;;;;;;3.00;2.80;;;20.20;99.90;;;;;;5080220;28;20452;-77
2022/07/25 00:42:05;;;;;;;2.40;2.30;;;20.40;99.90;;;;;;5079209;28;20449;-76
2022/07/25 00:44:32;;;;;;;3.70;3.40;;;20.20;99.90;;;;;;5081245;28;20456;-76
2022/07/25 00:47:00;;;;;;;3.57;3.20;;;20.30;99.90;;;;;;5083237;28;20449;-77
2022/07/25 00:49:27;;;;;;;2.80;2.60;;;20.20;99.90;;;;;;5082378;28;20481;-77
2022/07/25 00:51:58;;;;;;;4.10;2.90;;;20.20;99.90;;;;;;5082039;28;20547;-75
2022/07/25 00:54:25;;;;;;;3.07;2.87;;;20.20;99.90;;;;;;5080054;28;20422;-76
2022/07/25 00:56:52;;;;;;;3.17;2.97;;;20.20;99.90;;;;;;5081920;28;20451;-76
2022/07/25 00:59:19;;;;;;;2.83;2.63;;;20.20;99.90;;;;;;5075816;28;20445;-75
2022/07/25 01:01:46;;;;;;;3.70;3.40;;;20.20;99.90;;;;;;5079367;28;20429;-75
2022/07/25 01:04:14;;;;;;;2.77;2.60;;;20.20;99.90;;;;;;5080589;28;20476;-76
2022/07/25 01:06:41;;;;;;;2.27;2.17;;;20.20;99.90;;;;;;5079202;28;20460;-77
2022/07/25 01:09:09;;;;;;;3.47;3.17;;;20.20;99.90;;;;;;5082870;28;20575;-77
2022/07/25 01:11:37;;;;;;;3.23;3.03;;;20.10;99.90;;;;;;5077365;28;20449;-76
2022/07/25 01:14:04;;;;;;;3.40;3.10;;;20.10;99.90;;;;;;5078869;28;20465;-76
2022/07/25 01:16:31;;;;;;;4.33;2.83;;;20.10;99.90;;;;;;5076660;28;20445;-77
2022/07/25 01:18:58;;;;;;;2.77;2.57;;;20.10;99.90;;;;;;5078378;28;20441;-78
2022/07/25 01:21:27;;;;;;;3.50;3.20;;;20.00;99.90;;;;;;5080911;28;20452;-78
2022/07/25 01:23:53;;;;;;;3.13;2.80;;;19.90;99.90;;;;;;5082936;28;20487;-78
2022/07/25 01:26:21;;;;;;;3.10;2.50;;;19.90;99.90;;;;;;5084703;28;20457;-78
2022/07/25 01:28:47;;;;;;;2.70;2.50;;;19.90;99.90;;;;;;5084061;28;20441;-78
2022/07/25 01:31:14;;;;;;;4.60;2.93;;;19.90;99.90;;;;;;5084685;28;20448;-78
2022/07/25 01:33:41;;;;;;;2.40;2.20;;;19.90;99.90;;;;;;5085136;28;20492;-78
2022/07/25 01:36:08;;;;;;;3.90;3.40;;;19.70;99.90;;;;;;5085171;28;20452;-76
2022/07/25 01:38:36;;;;;;;3.73;2.77;;;19.80;99.90;;;;;;5082988;28;20532;-78
2022/07/25 01:41:03;;;;;;;2.97;2.57;;;19.80;99.90;;;;;;5081683;28;20445;-77
2022/07/25 01:43:30;;;;;;;2.70;2.50;;;19.80;99.90;;;;;;5087096;28;20472;-78
2022/07/25 01:45:57;;;;;;;4.13;2.50;;;19.70;99.90;;;;;;5088287;28;20444;-78
2022/07/25 01:48:24;;;;;;;3.00;2.80;;;19.70;99.90;;;;;;5087455;28;20443;-78
2022/07/25 01:50:51;;;;;;;2.80;2.60;;;19.70;99.90;;;;;;5086788;28;20840;-78
2022/07/25 01:53:18;;;;;;;3.27;3.07;;;19.70;99.90;;;;;;5085442;28;20506;-78
2022/07/25 01:55:46;;;;;;;3.03;2.60;;;19.70;99.90;;;;;;5082816;28;20447;-78
2022/07/25 01:58:13;;;;;;;2.63;2.50;;;19.70;99.90;;;;;;5081622;28;20445;-77
2022/07/25 02:00:40;;;;;;;3.33;3.13;;;19.50;99.90;;;;;;5083290;28;20452;-78
2022/07/25 02:05:54;;;;;;;3.10;2.73;;;19.60;99.90;;;;;;5080049;28;20447;-78
2022/07/25 02:08:20;;;;;;;2.97;2.67;;;19.60;99.90;;;;;;5078522;28;20448;-79
2022/07/25 02:10:49;;;;;;;3.20;3.00;;;19.60;99.90;;;;;;5078185;28;20488;-78
2022/07/25 02:13:15;;;;;;;2.70;2.50;;;19.70;99.90;;;;;;5077563;28;20465;-78
2022/07/25 02:15:42;;;;;;;2.57;2.37;;;19.70;99.90;;;;;;5077558;28;20452;-78
2022/07/25 02:18:09;;;;;;;3.73;3.43;;;19.70;99.90;;;;;;5079944;28;20448;-78
2022/07/25 02:20:36;;;;;;;3.20;2.90;;;19.60;99.90;;;;;;5078122;28;20444;-79
2022/07/25 02:23:03;;;;;;;3.70;3.40;;;19.60;99.90;;;;;;5077043;28;20476;-78
2022/07/25 02:25:30;;;;;;;3.00;2.80;;;19.40;99.90;;;;;;5077892;28;20444;-78
2022/07/25 02:27:58;;;;;;;6.70;2.90;;;19.70;99.90;;;;;;5077214;28;20444;-78
2022/07/25 02:30:25;;;;;;;4.60;2.67;;;19.50;99.90;;;;;;5077619;28;20488;-77
2022/07/25 02:32:52;;;;;;;2.30;2.20;;;19.50;99.90;;;;;;5077558;28;20469;-78
2022/07/25 02:35:19;;;;;;;4.70;2.60;;;19.70;99.90;;;;;;5079449;28;20451;-78
2022/07/25 02:37:46;;;;;;;3.40;2.87;;;19.10;99.90;;;;;;5089316;28;20449;-77
2022/07/25 02:40:13;;;;;;;2.60;2.40;;;19.40;99.90;;;;;;5085888;28;20437;-78
2022/07/25 02:42:40;;;;;;;3.03;2.83;;;19.40;99.90;;;;;;5083498;28;20460;-77
2022/07/25 02:45:09;;;;;;;2.57;2.37;;;19.30;99.90;;;;;;5083547;28;20540;-78
2022/07/25 02:47:36;;;;;;;3.23;2.90;;;19.30;99.90;;;;;;5081796;28;20460;-78
2022/07/25 02:50:03;;;;;;;3.10;2.80;;;19.30;99.90;;;;;;5077152;28;20481;-78
2022/07/25 02:52:30;;;;;;;2.80;2.60;;;19.00;99.90;;;;;;5082943;28;20471;-77
2022/07/25 02:54:57;;;;;;;3.03;2.83;;;19.30;99.90;;;;;;5084389;28;20441;-77
2022/07/25 02:57:24;;;;;;;3.70;3.40;;;19.30;99.90;;;;;;5080768;28;20463;-78
2022/07/25 02:59:50;;;;;;;2.83;2.63;;;19.30;99.90;;;;;;5078902;28;20436;-78
2022/07/25 03:02:19;;;;;;;2.93;2.70;;;19.40;99.90;;;;;;5076221;28;20460;-77
2022/07/25 03:04:45;;;;;;;3.13;2.90;;;19.30;99.90;;;;;;5075440;28;20456;-77
2022/07/25 03:07:12;;;;;;;2.77;2.60;;;19.30;99.90;;;;;;5076592;28;20445;-76
2022/07/25 03:09:39;;;;;;;3.40;3.20;;;19.30;99.90;;;;;;5080393;28;20484;-76
2022/07/25 03:12:06;;;;;;;3.10;2.80;;;19.40;99.90;;;;;;5081428;28;20559;-77
2022/07/25 03:14:32;;;;;;;2.40;2.30;;;19.30;99.90;;;;;;5080947;28;20809;-77
2022/07/25 03:16:59;;;;;;;2.83;2.60;;;19.30;99.90;;;;;;5079492;28;20449;-79
2022/07/25 03:19:27;;;;;;;2.97;2.77;;;19.20;99.90;;;;;;5076490;28;20449;-77
2022/07/25 03:21:54;;;;;;;3.17;2.97;;;19.20;99.90;;;;;;5077480;28;20449;-78
2022/07/25 03:24:21;;;;;;;3.97;2.93;;;19.10;99.90;;;;;;5077539;28;20457;-77
2022/07/25 03:26:48;;;;;;;3.27;2.97;;;19.10;99.90;;;;;;5080895;28;20452;-77
2022/07/25 03:29:14;;;;;;;3.40;2.83;;;19.20;99.90;;;;;;5083395;28;20437;-78
2022/07/25 03:31:41;;;;;;;3.73;2.53;;;19.10;99.90;;;;;;5081137;28;20452;-78
2022/07/25 03:34:08;;;;;;;3.27;3.00;;;19.10;99.90;;;;;;5080788;28;20491;-77
2022/07/25 03:36:36;;;;;;;6.40;3.20;;;19.00;99.90;;;;;;5077835;28;20445;-78
2022/07/25 03:39:03;;;;;;;3.57;3.20;;;19.10;99.90;;;;;;5076948;28;20471;-78
2022/07/25 03:41:30;;;;;;;3.73;2.50;;;19.00;99.90;;;;;;5077185;28;20457;-78
2022/07/25 03:43:56;;;;;;;2.63;2.43;;;19.10;99.90;;;;;;5076769;28;20843;-78
2022/07/25 03:46:23;;;;;;;3.67;2.87;;;19.00;99.90;;;;;;5076559;28;20452;-78
2022/07/25 03:48:50;;;;;;;3.43;2.80;;;19.00;99.90;;;;;;5076843;28;20479;-78
2022/07/25 03:51:17;;;;;;;3.83;3.23;;;19.00;99.90;;;;;;5077577;28;20480;-78
2022/07/25 03:54:03;;;;;;;2.90;2.70;;;19.00;99.90;;;;;;5081083;28;20464;-76
2022/07/25 03:56:31;;;;;;;2.53;2.33;;;19.00;99.90;;;;;;5081573;28;20520;-78
2022/07/25 03:58:58;;;;;;;5.30;3.73;;;19.00;99.90;;;;;;5077298;28;20456;-77
2022/07/25 04:01:25;;;;;;;3.23;2.70;;;19.00;99.90;;;;;;5084007;28;20447;-76
2022/07/25 04:03:51;;;;;;;3.37;3.13;;;19.00;99.90;;;;;;5086661;28;20547;-76
2022/07/25 04:06:18;;;;;;;4.33;2.80;;;19.00;99.90;;;;;;5081275;28;20449;-78
2022/07/25 04:08:46;;;;;;;3.20;2.90;;;19.10;99.90;;;;;;5087670;28;20856;-77
2022/07/25 04:11:13;;;;;;;2.70;2.50;;;19.10;99.90;;;;;;5083704;28;20479;-78
2022/07/25 04:13:40;;;;;;;3.40;3.10;;;19.10;99.90;;;;;;5077078;28;20484;-78
2022/07/25 04:16:07;;;;;;;3.27;3.07;;;19.10;99.90;;;;;;5076013;28;20441;-77
2022/07/25 04:18:34;;;;;;;3.17;2.87;;;19.20;99.90;;;;;;5076039;28;20455;-78
2022/07/25 04:21:00;;;;;;;3.53;3.27;;;19.20;99.90;;;;;;5075673;28;20448;-77
2022/07/25 04:23:28;;;;;;;3.53;3.20;;;19.30;99.90;;;;;;5088305;22;21014;-74
2022/07/25 04:25:56;;;;;;;3.30;3.00;;;19.30;99.90;;;;;;5052991;28;20533;-72
2022/07/25 04:28:23;;;;;;;3.40;3.00;;;19.40;99.90;;;;;;5052915;28;20481;-74
2022/07/25 04:30:51;;;;;;;3.60;3.30;;;19.40;99.90;;;;;;5052572;28;20992;-74
2022/07/25 04:33:18;;;;;;;4.10;3.20;;;19.40;99.90;;;;;;5052951;28;20472;-73
2022/07/25 04:35:45;;;;;;;2.97;2.77;;;19.40;99.90;;;;;;5053203;28;20453;-74
2022/07/25 04:38:12;;;;;;;3.20;3.00;;;19.40;99.90;;;;;;5052799;28;20449;-74
2022/07/25 04:40:39;;;;;;;3.40;3.10;;;19.40;99.90;;;;;;5052761;28;20445;-74
2022/07/25 04:43:08;;;;;;;3.00;2.80;;;19.50;99.90;;;;;;5052820;28;20909;-74
2022/07/25 04:45:35;;;;;;;3.20;3.00;;;19.50;99.90;;;;;;5053614;28;20485;-73
2022/07/25 04:48:02;;;;;;;3.73;3.43;;;19.60;99.90;;;;;;5052929;28;20797;-74
2022/07/25 04:50:29;;;;;;;3.70;3.40;;;19.60;99.90;;;;;;5052732;28;20855;-73
2022/07/25 04:52:56;;;;;;;3.10;2.87;;;19.70;99.90;;;;;;5052643;28;20833;-73
2022/07/25 04:55:23;;;;;;;3.57;3.27;;;19.80;99.90;;;;;;5052584;28;20469;-73
2022/07/25 04:57:50;;;;;;;3.40;3.20;;;19.80;99.90;;;;;;5052606;28;20445;-74
2022/07/25 05:00:18;;;;;;;5.77;3.30;;;19.80;99.90;;;;;;5056807;28;20830;-73
2022/07/25 05:02:45;;;;;;;3.37;3.17;;;19.90;99.90;;;;;;5056400;28;20466;-73
2022/07/25 05:05:12;;;;;;;4.97;2.80;;;19.90;99.90;;;;;;5056364;28;20449;-73
2022/07/25 05:07:38;;;;;;;4.77;2.50;;;19.90;99.90;;;;;;5057153;28;20503;-74
2022/07/25 05:10:06;;;;;;;3.40;2.70;;;20.00;99.90;;;;;;5055794;28;20454;-74
2022/07/25 05:12:33;;;;;;;4.57;3.20;;;20.00;99.90;;;;;;5055950;28;20449;-73
2022/07/25 05:14:59;;;;;;;5.70;2.90;;;20.10;99.90;;;;;;5056141;28;20453;-74
2022/07/25 05:17:28;;;;;;;4.20;2.77;;;20.10;99.90;;;;;;5055737;28;20504;-74
2022/07/25 05:19:54;;;;;;;4.60;3.10;;;20.10;99.90;;;;;;5056083;28;20881;-75
2022/07/25 05:22:21;;;;;;;4.77;2.77;;;20.30;99.90;;;;;;5055696;28;20460;-75
2022/07/25 05:24:48;;;;;;;4.50;3.83;;;20.40;99.90;;;;;;5055352;28;20481;-73
2022/07/25 05:27:14;;;;;;;3.47;3.20;;;20.40;99.90;;;;;;5055896;28;20887;-73
2022/07/25 05:29:41;;;;;;;3.50;3.20;;;20.50;99.90;;;;;;5055699;28;20464;-75
2022/07/25 05:32:08;;;;;;;6.63;3.40;;;20.60;99.90;;;;;;5055708;28;20606;-74
2022/07/25 05:34:36;;;;;;;7.63;3.27;;;20.70;99.90;;;;;;5055715;28;20835;-74
2022/07/25 05:37:03;;;;;;;5.43;4.90;;;20.70;99.90;;;;;;5055597;28;20453;-74
2022/07/25 05:39:30;;;;;;;4.90;3.50;;;20.80;99.90;;;;;;5055237;28;20442;-74
2022/07/25 05:41:56;;;;;;;3.00;2.63;;;20.90;99.90;;;;;;5055159;28;20499;-75
2022/07/25 05:44:23;;;;;;;3.70;3.43;;;21.00;99.90;;;;;;5055457;28;20504;-74
2022/07/25 05:46:50;;;;;;;4.97;4.23;;;21.00;99.90;;;;;;5055375;28;20446;-74
2022/07/25 05:49:17;;;;;;;3.43;3.20;;;21.10;99.90;;;;;;5055021;28;20446;-74
2022/07/25 05:51:45;;;;;;;11.43;4.50;;;21.20;99.90;;;;;;5055937;28;20488;-74
2022/07/25 05:54:11;;;;;;;3.60;3.30;;;21.30;99.90;;;;;;5054765;28;20470;-75
2022/07/25 05:56:38;;;;;;;6.50;3.80;;;21.30;99.90;;;;;;5055329;28;20446;-75
2022/07/25 05:59:05;;;;;;;4.30;3.90;;;21.40;99.90;;;;;;5055095;28;20449;-74
2022/07/25 06:01:32;;;;;;;3.67;3.00;;;21.50;99.90;;;;;;5055021;28;20448;-75
2022/07/25 06:03:59;;;;;;;3.43;3.13;;;21.60;99.90;;;;;;5055085;28;20477;-75
2022/07/25 06:06:25;;;;;;;5.03;4.10;;;21.70;99.90;;;;;;5055861;28;20855;-75
2022/07/25 06:08:53;;;;;;;4.53;3.73;;;21.80;99.90;;;;;;5054703;28;20457;-75
2022/07/25 06:11:20;;;;;;;6.53;3.37;;;21.90;99.90;;;;;;5054752;28;20485;-75
2022/07/25 06:13:47;;;;;;;4.20;3.80;;;22.00;99.90;;;;;;5054850;28;20474;-75
2022/07/25 06:16:13;;;;;;;5.30;4.83;;;22.10;99.90;;;;;;5055533;28;20449;-74
2022/07/25 06:18:40;;;;;;;8.23;3.73;;;22.20;99.90;;;;;;5054889;28;20866;-75
2022/07/25 06:21:07;;;;;;;6.80;3.93;;;22.20;99.90;;;;;;5054811;28;20442;-75
2022/07/25 06:23:33;;;;;;;7.50;4.30;;;22.30;99.90;;;;;;5054874;28;20853;-74
2022/07/25 06:26:01;;;;;;;7.53;3.60;;;22.40;99.90;;;;;;5054754;28;20441;-74
2022/07/25 06:28:28;;;;;;;9.07;4.60;;;22.50;99.90;;;;;;5054736;28;20448;-74
2022/07/25 06:30:55;;;;;;;4.40;4.00;;;22.60;99.90;;;;;;5054580;28;20486;-73
2022/07/25 06:33:22;;;;;;;4.73;4.17;;;22.70;99.90;;;;;;5054509;28;20469;-73
2022/07/25 06:35:49;;;;;;;6.23;4.70;;;22.70;99.90;;;;;;5054146;28;20453;-73
2022/07/25 06:38:15;;;;;;;5.07;4.00;;;22.80;99.90;;;;;;5054572;28;20503;-73
2022/07/25 06:40:42;;;;;;;5.57;4.60;;;22.90;99.90;;;;;;5054508;28;20441;-73
2022/07/25 06:43:10;;;;;;;5.43;4.93;;;23.00;99.90;;;;;;5054262;28;20470;-73
2022/07/25 06:45:37;;;;;;;7.00;4.60;;;23.00;99.90;;;;;;5054353;28;20507;-73
2022/07/25 06:48:04;;;;;;;4.23;3.93;;;23.10;99.90;;;;;;5054393;28;20452;-75
2022/07/25 06:50:31;;;;;;;4.50;4.20;;;23.10;99.90;;;;;;5054307;28;20497;-74
2022/07/25 06:52:58;;;;;;;6.07;5.57;;;23.20;99.90;;;;;;5054158;28;20501;-74
2022/07/25 06:55:24;;;;;;;8.10;7.30;;;23.30;99.90;;;;;;5054611;28;20800;-74
2022/07/25 06:57:51;;;;;;;8.50;5.67;;;23.40;99.90;;;;;;5054316;28;20455;-73
2022/07/25 07:00:19;;;;;;;7.77;6.60;;;23.50;99.90;;;;;;5054125;28;20450;-74
2022/07/25 07:02:51;;;;;;;6.67;5.97;;;23.60;99.90;;;;;;5053555;28;21007;-73
2022/07/25 07:05:17;;;;;;;6.70;4.70;;;23.60;99.90;;;;;;5054218;28;20430;-74
2022/07/25 07:07:44;;;;;;;5.70;5.13;;;23.70;99.90;;;;;;5053988;28;20492;-75
2022/07/25 07:10:11;;;;;;;5.53;5.00;;;23.80;99.90;;;;;;5053483;28;20945;-74
2022/07/25 07:12:38;;;;;;;5.07;4.67;;;24.20;99.90;;;;;;5053464;28;20996;-73
2022/07/25 07:15:06;;;;;;;8.80;6.87;;;23.80;99.90;;;;;;5053757;28;20484;-74
2022/07/25 07:17:34;;;;;;;9.80;6.70;;;24.00;99.90;;;;;;5053571;28;20450;-74
2022/07/25 07:20:00;;;;;;;5.20;4.47;;;24.00;99.90;;;;;;5053771;28;20827;-74
2022/07/25 07:22:27;;;;;;;6.30;5.07;;;24.10;99.90;;;;;;5052440;28;20449;-74
2022/07/25 07:24:54;;;;;;;5.77;5.10;;;24.20;99.90;;;;;;5053437;28;20485;-73
2022/07/25 07:27:22;;;;;;;9.60;6.83;;;24.30;99.90;;;;;;5053353;28;20452;-73
2022/07/25 07:29:49;;;;;;;7.40;6.80;;;24.40;99.90;;;;;;5053394;28;21012;-73
2022/07/25 07:32:16;;;;;;;6.13;5.53;;;24.50;99.90;;;;;;5053448;28;20488;-73
2022/07/25 07:34:44;;;;;;;7.80;6.97;;;24.50;99.90;;;;;;5053467;28;20470;-73
2022/07/25 07:37:10;;;;;;;12.97;8.00;;;24.60;99.90;;;;;;5053243;28;20941;-73
2022/07/25 07:39:37;;;;;;;7.20;6.20;;;24.70;99.90;;;;;;5053436;28;20493;-73
2022/07/25 07:42:04;;;;;;;6.50;5.50;;;24.80;99.90;;;;;;5054421;28;20449;-74
2022/07/25 07:44:31;;;;;;;7.17;6.00;;;24.90;99.90;;;;;;5053386;28;20466;-74
2022/07/25 07:47:01;;;;;;;6.90;6.20;;;24.90;99.90;;;;;;5053713;28;20461;-73
2022/07/25 07:49:28;;;;;;;6.63;5.97;;;25.00;99.90;;;;;;5054011;28;20499;-73
2022/07/25 07:51:56;;;;;;;7.87;6.50;;;25.10;99.90;;;;;;5053471;28;20477;-73
2022/07/25 07:57:07;;;;;;;6.87;6.27;;;25.30;99.90;;;;;;5053404;28;20402;-73
2022/07/25 07:59:33;;;;;;;14.63;8.60;;;25.40;99.90;;;;;;5052921;28;20955;-73
2022/07/25 08:02:00;;;;;;;9.23;8.33;;;25.40;99.90;;;;;;5052690;28;20456;-73
2022/07/25 08:04:27;;;;;;;11.77;10.53;;;25.50;99.90;;;;;;5052795;28;20472;-73
2022/07/25 08:06:55;;;;;;;6.73;6.17;;;25.50;99.90;;;;;;5052837;28;20503;-73
2022/07/25 08:09:24;;;;;;;8.43;6.80;;;25.60;99.90;;;;;;5052786;28;20454;-74
2022/07/25 08:11:51;;;;;;;8.73;7.50;;;25.70;99.90;;;;;;5052809;28;20577;-73
2022/07/25 08:14:18;;;;;;;9.17;8.40;;;25.70;99.90;;;;;;5052651;28;20476;-74
2022/07/25 08:16:44;;;;;;;15.07;12.27;;;25.70;99.90;;;;;;5053052;28;20457;-73
2022/07/25 08:19:11;;;;;;;10.83;9.83;;;25.70;99.90;;;;;;5052916;28;20449;-74
2022/07/25 08:21:38;;;;;;;18.23;16.53;;;25.80;99.90;;;;;;5052865;28;20859;-74
2022/07/25 08:24:06;;;;;;;9.37;6.87;;;25.90;99.90;;;;;;5052485;28;20477;-73
2022/07/25 08:26:35;;;;;;;7.27;6.63;;;26.00;99.90;;;;;;5052794;28;20450;-73
2022/07/25 08:29:02;;;;;;;8.07;7.40;;;26.10;99.90;;;;;;5052687;28;20859;-74
2022/07/25 08:31:29;;;;;;;9.90;9.07;;;26.20;99.90;;;;;;5052457;28;20545;-73
2022/07/25 08:33:56;;;;;;;6.97;6.33;;;26.30;99.90;;;;;;5055517;28;20476;-73
2022/07/25 08:36:23;;;;;;;9.40;8.50;;;26.30;99.90;;;;;;5056326;28;20471;-73
2022/07/25 08:38:49;;;;;;;14.63;12.67;;;26.40;99.90;;;;;;5056380;28;20472;-73
2022/07/25 08:41:17;;;;;;;10.93;9.53;;;26.50;99.90;;;;;;5056699;28;20449;-73
2022/07/25 08:43:47;;;;;;;21.20;19.00;;;26.60;99.90;;;;;;5056468;28;20473;-73
2022/07/25 08:46:15;;;;;;;13.00;11.80;;;26.70;99.90;;;;;;5056399;28;20457;-74
2022/07/25 08:48:43;;;;;;;22.70;19.83;;;26.70;99.90;;;;;;5056325;28;20449;-74
2022/07/25 08:51:10;;;;;;;8.90;8.20;;;26.70;99.90;;;;;;5056867;28;20523;-74
2022/07/25 08:53:37;;;;;;;11.00;9.13;;;26.80;99.90;;;;;;5056289;28;20829;-73
2022/07/25 08:56:05;;;;;;;9.47;8.43;;;26.90;99.90;;;;;;5056550;28;20486;-74
2022/07/25 08:58:33;;;;;;;10.00;9.10;;;26.90;99.90;;;;;;5056619;28;20481;-74
2022/07/25 09:00:59;;;;;;;11.43;9.53;;;27.10;99.90;;;;;;5056468;28;20446;-74
2022/07/25 09:03:26;;;;;;;10.50;9.00;;;27.20;99.90;;;;;;5056051;28;20461;-74
2022/07/25 09:05:53;;;;;;;10.13;9.33;;;27.20;99.90;;;;;;5056183;28;20445;-74
2022/07/25 09:08:20;;;;;;;11.73;8.93;;;27.30;99.90;;;;;;5056350;28;20445;-73
2022/07/25 09:10:49;;;;;;;10.17;9.27;;;27.40;99.90;;;;;;5056087;28;20457;-73
2022/07/25 09:13:17;;;;;;;9.37;8.33;;;27.40;99.90;;;;;;5055843;28;20523;-74
2022/07/25 09:15:48;;;;;;;10.73;9.63;;;27.50;99.90;;;;;;5056340;28;20471;-74
2022/07/25 09:18:16;;;;;;;8.00;7.40;;;27.50;99.90;;;;;;5056416;28;20433;-74
2022/07/25 09:20:45;;;;;;;11.70;10.60;;;27.50;99.90;;;;;;5056264;28;20445;-74
2022/07/25 09:23:13;;;;;;;9.50;8.80;;;27.50;99.90;;;;;;5056168;28;20469;-74
2022/07/25 09:25:40;;;;;;;9.17;8.30;;;27.50;99.90;;;;;;5056668;28;20552;-74
2022/07/25 09:28:12;;;;;;;11.63;9.37;;;27.50;99.90;;;;;;5056600;28;20527;-74
2022/07/25 09:30:39;;;;;;;9.23;8.40;;;27.60;99.90;;;;;;5056122;28;20485;-74
2022/07/25 09:33:07;;;;;;;10.77;9.83;;;27.80;99.90;;;;;;5055803;28;20485;-73
2022/07/25 09:35:37;;;;;;;10.47;9.50;;;27.80;99.90;;;;;;5055548;28;20456;-73
2022/07/25 09:38:08;;;;;;;9.43;8.67;;;27.90;99.90;;;;;;5055556;28;20489;-74
2022/07/25 09:40:35;;;;;;;10.67;9.60;;;27.90;99.90;;;;;;5055554;28;20450;-73
2022/07/25 09:43:02;;;;;;;12.40;11.13;;;28.00;99.90;;;;;;5055400;28;20485;-73
2022/07/25 09:45:29;;;;;;;9.23;8.50;;;28.00;99.90;;;;;;5054330;28;20450;-73
2022/07/25 09:47:57;;;;;;;10.03;9.23;;;28.10;99.90;;;;;;5055371;28;20454;-73
2022/07/25 09:50:27;;;;;;;10.53;9.73;;;28.30;99.90;;;;;;5055444;28;20852;-73
2022/07/25 09:52:59;;;;;;;10.70;9.80;;;28.40;99.90;;;;;;5055535;28;20837;-73
2022/07/25 09:55:26;;;;;;;13.00;10.00;;;28.40;99.90;;;;;;5055821;28;20438;-73
2022/07/25 09:57:53;;;;;;;8.67;7.60;;;28.50;99.90;;;;;;5055252;28;20457;-73
2022/07/25 10:00:22;;;;;;;11.40;10.40;;;28.60;99.90;;;;;;5055163;28;20540;-73
2022/07/25 10:02:55;;;;;;;11.90;10.90;;;28.60;99.90;;;;;;5055169;28;20492;-73
2022/07/25 10:05:37;;;;;;;11.03;10.13;;;28.60;99.90;;;;;;5054771;28;20920;-75
2022/07/25 10:08:07;;;;;;;10.60;9.60;;;28.70;99.90;;;;;;5055237;28;20491;-73
2022/07/25 10:10:38;;;;;;;11.47;10.37;;;28.80;99.90;;;;;;5054877;28;20827;-73
2022/07/25 10:13:09;;;;;;;10.90;9.80;;;29.00;99.90;;;;;;5055113;28;20496;-73
2022/07/25 10:15:50;;;;;;;12.10;11.10;;;29.20;99.90;;;;;;5055074;28;20434;-73
2022/07/25 10:18:18;;;;;;;11.27;10.33;;;29.20;99.90;;;;;;5054990;28;20441;-75
2022/07/25 10:20:48;;;;;;;10.57;9.70;;;29.20;99.90;;;;;;5054789;28;20482;-73
2022/07/25 10:23:19;;;;;;;10.37;9.30;;;29.50;99.90;;;;;;5071422;22;22340;-77
2022/07/25 10:25:46;;;;;;;10.37;9.40;;;29.30;99.90;;;;;;5075825;28;20452;-77
2022/07/25 10:28:19;;;;;;;12.20;10.90;;;29.40;99.90;;;;;;5075388;28;20947;-77
2022/07/25 10:30:46;;;;;;;11.30;10.40;;;29.50;99.90;;;;;;5075840;28;20457;-76
2022/07/25 10:33:14;;;;;;;10.30;9.40;;;29.50;99.90;;;;;;5074985;28;20474;-76
2022/07/25 10:35:42;;;;;;;12.73;11.40;;;29.50;99.90;;;;;;5075060;28;20444;-76
2022/07/25 10:38:11;;;;;;;12.70;11.60;;;29.50;99.90;;;;;;5074972;28;20445;-77
2022/07/25 10:40:41;;;;;;;12.30;11.20;;;29.60;99.90;;;;;;5074354;28;20449;-77
2022/07/25 10:43:09;;;;;;;12.27;11.00;;;29.60;99.90;;;;;;5073990;28;20491;-76
2022/07/25 10:45:44;;;;;;;11.40;10.50;;;29.70;99.90;;;;;;5074328;28;20812;-76
2022/07/25 10:48:19;;;;;;;13.77;12.50;;;29.70;99.90;;;;;;5074273;28;20424;-76
2022/07/25 10:50:48;;;;;;;10.80;9.80;;;29.70;99.90;;;;;;5074413;28;20421;-76
2022/07/25 10:53:28;;;;;;;10.83;9.80;;;29.80;99.90;;;;;;5073957;28;20493;-77
2022/07/25 10:55:57;;;;;;;11.80;10.90;;;29.80;99.90;;;;;;5073795;28;20535;-77
2022/07/25 10:58:24;;;;;;;13.00;10.90;;;29.90;99.90;;;;;;5073594;28;20480;-75
2022/07/25 11:00:51;;;;;;;24.33;22.20;;;30.10;99.90;;;;;;5073604;28;20456;-75
2022/07/25 11:03:18;;;;;;;11.53;10.37;;;30.20;99.90;;;;;;5073859;28;20467;-75
2022/07/25 11:05:46;;;;;;;12.90;11.80;;;30.20;99.90;;;;;;5074003;28;20479;-75
2022/07/25 11:08:12;;;;;;;14.73;11.03;;;30.30;99.90;;;;;;5074543;28;20523;-75
2022/07/25 11:10:41;;;;;;;11.50;10.43;;;30.30;99.90;;;;;;5073961;28;20467;-76
2022/07/25 11:13:11;;;;;;;11.70;10.60;;;30.40;99.90;;;;;;5073764;28;20492;-76
2022/07/25 11:15:38;;;;;;;11.03;10.03;;;30.30;99.90;;;;;;5073543;28;20425;-75
2022/07/25 11:18:05;;;;;;;10.40;9.40;;;30.30;99.90;;;;;;5073658;28;20956;-76
2022/07/25 11:20:32;;;;;;;11.63;10.57;;;30.40;99.90;;;;;;5077624;28;20455;-75
2022/07/25 11:22:58;;;;;;;11.37;10.27;;;30.10;99.90;;;;;;5078970;28;20449;-75
2022/07/25 11:25:25;;;;;;;11.50;10.50;;;30.50;99.90;;;;;;5074719;28;20459;-75
2022/07/25 11:27:58;;;;;;;13.07;11.87;;;30.60;99.90;;;;;;5074124;28;20452;-76
2022/07/25 11:30:27;;;;;;;15.03;10.60;;;30.70;99.90;;;;;;5073836;28;20433;-75
2022/07/25 11:32:56;;;;;;;10.27;9.30;;;30.70;99.90;;;;;;5073742;28;20479;-75
2022/07/25 11:35:25;;;;;;;10.47;9.60;;;30.80;98.80;;;;;;5073289;28;20498;-75
2022/07/25 11:37:52;;;;;;;12.20;10.00;;;30.80;99.90;;;;;;5073158;28;20452;-75
2022/07/25 11:40:20;;;;;;;10.77;9.97;;;30.90;99.90;;;;;;5074083;28;20457;-75
2022/07/25 11:42:48;;;;;;;12.17;11.10;;;31.00;99.90;;;;;;5073447;28;20536;-76
2022/07/25 11:45:21;;;;;;;11.03;10.13;;;31.20;99.80;;;;;;5074257;28;20457;-76
2022/07/25 11:47:49;;;;;;;10.70;9.70;;;31.20;99.00;;;;;;5073050;28;20433;-76
2022/07/25 11:50:16;;;;;;;11.30;10.33;;;31.20;99.20;;;;;;5073440;28;20445;-76
2022/07/25 11:52:44;;;;;;;12.80;9.10;;;31.10;98.50;;;;;;5073256;28;20851;-76
2022/07/25 11:55:14;;;;;;;10.83;9.93;;;31.10;98.10;;;;;;5072990;28;20504;-76
2022/07/25 11:57:43;;;;;;;10.50;9.50;;;31.30;97.50;;;;;;5073668;28;20456;-75
2022/07/25 12:00:17;;;;;;;10.70;9.80;;;31.30;97.50;;;;;;5073249;28;20531;-76
2022/07/25 12:02:46;;;;;;;11.23;10.30;;;31.60;97.20;;;;;;5073119;28;20915;-76
2022/07/25 12:05:15;;;;;;;11.33;10.13;;;31.60;97.10;;;;;;5073102;28;20820;-76
2022/07/25 12:07:44;;;;;;;11.23;10.33;;;31.50;94.20;;;;;;5073189;28;20444;-76
2022/07/25 12:10:14;;;;;;;11.10;10.10;;;31.40;96.00;;;;;;5073498;28;20490;-75
2022/07/25 12:12:52;;;;;;;11.00;10.10;;;31.50;96.30;;;;;;5073054;28;21070;-76
2022/07/25 12:15:21;;;;;;;11.03;10.03;;;31.40;96.20;;;;;;5072961;28;20448;-76
2022/07/25 12:17:50;;;;;;;11.23;10.03;;;31.50;92.00;;;;;;5073544;28;20988;-76
2022/07/25 12:20:18;;;;;;;11.90;9.70;;;31.60;94.70;;;;;;5073043;28;20822;-76
2022/07/25 12:22:45;;;;;;;10.40;9.47;;;31.50;94.70;;;;;;5073113;28;20974;-76
2022/07/25 12:25:12;;;;;;;10.30;9.40;;;31.60;95.20;;;;;;5072963;28;20464;-76
2022/07/25 12:27:40;;;;;;;9.80;8.97;;;31.60;93.70;;;;;;5074995;28;20495;-77
2022/07/25 12:30:08;;;;;;;10.27;9.37;;;31.70;89.20;;;;;;5072813;28;20864;-76
2022/07/25 12:32:35;;;;;;;11.17;9.83;;;31.80;90.80;;;;;;5072613;28;20484;-76
2022/07/25 12:35:05;;;;;;;10.40;9.50;;;31.80;92.30;;;;;;5072700;28;20468;-75
2022/07/25 12:37:32;;;;;;;10.80;9.90;;;32.00;91.90;;;;;;5072742;28;20510;-75
2022/07/25 12:39:59;;;;;;;11.00;10.00;;;32.00;91.30;;;;;;5072571;28;20449;-76
2022/07/25 12:42:27;;;;;;;12.77;10.67;;;32.00;92.30;;;;;;5072915;28;20449;-75
2022/07/25 12:44:55;;;;;;;11.20;10.00;;;31.90;91.40;;;;;;5072486;28;20975;-76
2022/07/25 12:47:21;;;;;;;10.40;9.60;;;31.90;91.40;;;;;;5072300;28;20535;-75
2022/07/25 12:49:48;;;;;;;13.80;12.60;;;32.00;92.40;;;;;;5072591;28;20445;-76